Aérodrome :
LOGIN :

S'inscrire | Disclaimer

   EN    FR    IT 

 










Légende :    VFR   VFR Marginal   IFR   IFR Intensif   IFR Très Intensif
Visi : 
Plafond : 
>= 8 km
>= 3000ft
5 à 8 km
1000 à 3000 ft
1500m à 5 km
500 à 1000 ft
800 à 1500m
200 à 500 ft
< 800m
< 200 ft
Symboles :   Orages  Brouillard  Fortes neiges  Fortes précipitations  Vent > 20 kt
SIGMETs :   Divers  Orages  Givrage  Turbulence  Onde Orograph.  Cendres Volcan.







- Altitude de l'aérodrome : 12 ft
- Code IATA : NCE
- Voir les cartes d'approche


LFMN - Nice

DERNIER METAR :
  • 181500Z 10009KT 9999 FEW016 FEW040CB BKN260 26/21 Q1012 NOSIG

METARs EXPIRÉS :
  • 181430Z 09008KT 9999 FEW016 FEW040CB BKN260 26/21 Q1012 NOSIG
  • 181400Z 10007KT 9999 FEW016 FEW040CB BKN260 26/21 Q1012 NOSIG
  • 181330Z 10005KT 9999 FEW016 FEW040CB BKN260 26/21 Q1012 NOSIG
  • 181300Z 11007KT 9999 FEW016 FEW040CB BKN260 26/20 Q1012 NOSIG
  • 181230Z 11008KT 9999 FEW016 FEW040CB BKN260 26/20 Q1012 NOSIG

TAF TAF LFMN
Valide du 18 à 15h jusqu'au 19 à 21h UTC


181400Z 1815/1921 09010KT 9999 FEW015 BKN250
TEMPO 1815/1816 FEW040CB
TEMPO 1818/1907 BKN014
BECMG 1821/1823 34010KT
BECMG 1907/1909 14010KT
TEMPO 1918/1921 BKN010
ATIS : +33 4 93 17 21 16
Pas de NOTAMs connus pour ce terrain.



MET'MAP, la Météo Aéronautique d'un coup d'oeil ! - Copyright ORBIFLY Décembre 2007 - Disclaimer

ORBIFLY MET'MAP TEAM :

Programmation & Développement : Alexandra Zaïnal
Conception & Développement : Baudouin d'Aumeries
Co-Programmation & Développement : Marc-Olivier Méhu
Soutien technique & logistique : Manuel Goepfert

Contact : metmap@orbifly.com




SOURCES & CREDITS :

   NOAA